createdAt,value
2022-12-07T00:01:31.995Z,4.10
2022-12-07T00:04:19.084Z,4.00
2022-12-07T00:07:05.282Z,4.00
2022-12-07T00:09:50.812Z,4.10
2022-12-07T00:12:36.244Z,4.00
2022-12-07T00:15:21.641Z,4.10
2022-12-07T00:18:07.418Z,4.10
2022-12-07T00:20:52.991Z,4.10
2022-12-07T00:23:39.381Z,4.10
2022-12-07T00:26:30.647Z,4.10
2022-12-07T00:29:21.412Z,4.10
2022-12-07T00:32:07.114Z,4.10
2022-12-07T00:34:52.774Z,4.20
2022-12-07T00:37:38.406Z,4.10
2022-12-07T00:40:23.821Z,4.10
2022-12-07T00:43:09.610Z,4.00
2022-12-07T00:45:55.750Z,4.00
2022-12-07T00:48:41.497Z,4.10
2022-12-07T00:51:27.612Z,4.10
2022-12-07T00:54:13.228Z,4.10
2022-12-07T00:56:58.801Z,4.10
2022-12-07T00:59:44.667Z,4.00
2022-12-07T01:02:29.936Z,4.00
2022-12-07T01:05:15.613Z,4.10
2022-12-07T01:08:01.014Z,4.10
2022-12-07T01:10:46.669Z,4.10
2022-12-07T01:13:32.841Z,4.00
2022-12-07T01:16:19.055Z,4.10
2022-12-07T01:19:05.751Z,4.00
2022-12-07T01:21:51.645Z,4.00
2022-12-07T01:24:37.078Z,4.00
2022-12-07T01:27:22.822Z,4.00
2022-12-07T01:30:08.674Z,4.10
2022-12-07T01:32:54.051Z,4.00
2022-12-07T01:35:39.574Z,4.00
2022-12-07T01:38:24.905Z,4.00
2022-12-07T01:41:11.183Z,4.00
2022-12-07T01:44:17.763Z,4.00
2022-12-07T01:47:05.306Z,3.90
2022-12-07T01:49:50.938Z,3.90
2022-12-07T01:52:38.791Z,3.90
2022-12-07T01:55:24.883Z,3.90
2022-12-07T01:58:11.225Z,3.90
2022-12-07T02:00:56.832Z,4.00
2022-12-07T02:03:45.022Z,4.00
2022-12-07T02:06:31.146Z,4.00
2022-12-07T02:09:17.265Z,3.90
2022-12-07T02:12:03.479Z,3.90
2022-12-07T02:14:49.865Z,4.00
2022-12-07T02:18:00.811Z,3.90
2022-12-07T02:21:10.834Z,3.90
2022-12-07T02:24:15.456Z,3.90
2022-12-07T02:27:18.870Z,3.90
2022-12-07T02:30:14.675Z,3.90
2022-12-07T02:33:10.174Z,3.90
2022-12-07T02:36:28.706Z,3.90
2022-12-07T02:39:24.236Z,3.90
2022-12-07T02:42:16.758Z,3.90
2022-12-07T02:45:02.964Z,3.90
2022-12-07T02:47:53.463Z,4.00
2022-12-07T02:50:39.253Z,4.10
2022-12-07T02:53:39.237Z,4.00
2022-12-07T02:56:45.578Z,4.00
2022-12-07T03:00:03.228Z,4.00
2022-12-07T03:03:06.684Z,4.00
2022-12-07T03:06:04.144Z,4.00
2022-12-07T03:09:15.983Z,4.00
2022-12-07T03:12:15.233Z,4.00
2022-12-07T03:15:12.143Z,4.00
2022-12-07T03:18:00.233Z,3.90
2022-12-07T03:20:47.012Z,3.80
2022-12-07T03:23:35.238Z,3.70
2022-12-07T03:26:25.033Z,3.60
2022-12-07T03:29:16.973Z,3.50
2022-12-07T03:32:11.549Z,3.50
2022-12-07T03:35:18.085Z,3.40
2022-12-07T03:38:38.496Z,3.40
2022-12-07T03:41:27.990Z,3.30
2022-12-07T03:44:15.240Z,3.30
2022-12-07T03:47:14.599Z,3.40
2022-12-07T03:50:07.454Z,3.30
2022-12-07T03:53:21.435Z,3.30
2022-12-07T03:56:09.469Z,3.30
2022-12-07T03:58:55.668Z,3.30
2022-12-07T04:01:45.404Z,3.30
2022-12-07T04:04:31.419Z,3.20
2022-12-07T04:07:17.659Z,3.10
2022-12-07T04:10:04.735Z,3.10
2022-12-07T04:12:50.258Z,3.10
2022-12-07T04:15:36.340Z,3.20
2022-12-07T04:18:22.092Z,3.20
2022-12-07T04:21:07.357Z,3.10
2022-12-07T04:23:52.997Z,3.10
2022-12-07T04:26:38.642Z,3.20
2022-12-07T04:29:24.646Z,3.20
2022-12-07T04:32:10.518Z,3.10
2022-12-07T04:34:56.208Z,3.20
2022-12-07T04:37:43.040Z,3.10
2022-12-07T04:40:28.540Z,3.00
2022-12-07T04:43:14.184Z,2.90
2022-12-07T04:45:59.597Z,2.80
2022-12-07T04:48:44.842Z,2.80
2022-12-07T04:51:30.424Z,2.80
2022-12-07T04:54:16.824Z,2.80
2022-12-07T04:57:02.488Z,2.90
2022-12-07T04:59:47.970Z,2.80
2022-12-07T05:02:33.515Z,2.70
2022-12-07T05:05:18.926Z,2.70
2022-12-07T05:08:04.841Z,2.70
2022-12-07T05:10:51.048Z,2.60
2022-12-07T05:13:37.234Z,2.60
2022-12-07T05:16:22.749Z,2.60
2022-12-07T05:19:09.097Z,2.60
2022-12-07T05:21:54.836Z,2.60
2022-12-07T05:24:40.494Z,2.60
2022-12-07T05:27:26.075Z,2.60
2022-12-07T05:30:11.715Z,2.60
2022-12-07T05:32:57.655Z,2.50
2022-12-07T05:35:43.326Z,2.50
2022-12-07T05:38:28.941Z,2.60
2022-12-07T05:41:35.177Z,2.50
2022-12-07T05:44:21.197Z,2.50
2022-12-07T05:47:07.013Z,2.50
2022-12-07T05:49:52.595Z,2.40
2022-12-07T05:52:38.072Z,2.40
2022-12-07T05:55:23.535Z,2.30
2022-12-07T05:58:27.360Z,2.30
2022-12-07T06:01:13.123Z,2.30
2022-12-07T06:03:58.444Z,2.40
2022-12-07T06:06:43.996Z,2.30
2022-12-07T06:09:30.113Z,2.10
2022-12-07T06:12:33.916Z,2.10
2022-12-07T06:15:19.490Z,1.90
2022-12-07T06:18:05.264Z,1.80
2022-12-07T06:20:50.755Z,1.70
2022-12-07T06:23:36.469Z,1.70
2022-12-07T06:26:22.166Z,1.60
2022-12-07T06:29:07.549Z,1.60
2022-12-07T06:31:53.313Z,1.60
2022-12-07T06:34:38.695Z,1.50
2022-12-07T06:37:24.405Z,1.50
2022-12-07T06:40:10.491Z,1.50
2022-12-07T06:42:56.641Z,1.40
2022-12-07T06:45:43.057Z,1.30
2022-12-07T06:48:28.772Z,1.30
2022-12-07T06:51:14.376Z,1.30
2022-12-07T06:53:59.892Z,1.30
2022-12-07T06:56:45.956Z,1.40
2022-12-07T06:59:31.403Z,1.30
2022-12-07T07:02:17.234Z,1.30
2022-12-07T07:05:02.913Z,1.30
2022-12-07T07:08:20.400Z,1.40
2022-12-07T07:10:54.545Z,1.40
2022-12-07T07:13:40.385Z,1.40
2022-12-07T07:16:25.792Z,1.40
2022-12-07T07:19:11.714Z,1.50
2022-12-07T07:21:57.223Z,1.60
2022-12-07T07:24:42.576Z,1.60
2022-12-07T07:27:28.231Z,1.60
2022-12-07T07:30:13.973Z,1.60
2022-12-07T07:33:00.597Z,1.60
2022-12-07T07:35:46.445Z,1.60
2022-12-07T07:38:32.021Z,1.70
2022-12-07T07:41:17.569Z,1.70
2022-12-07T07:44:02.980Z,1.80
2022-12-07T07:46:48.457Z,1.80
2022-12-07T07:49:33.848Z,1.80
2022-12-07T07:52:19.411Z,1.90
2022-12-07T07:55:05.684Z,1.90
2022-12-07T07:57:54.746Z,1.90
2022-12-07T08:00:40.773Z,1.90
2022-12-07T08:03:26.329Z,1.90
2022-12-07T08:06:11.794Z,2.00
2022-12-07T08:08:58.980Z,2.10
2022-12-07T08:11:46.446Z,2.10
2022-12-07T08:14:31.904Z,2.20
2022-12-07T08:17:17.386Z,2.20
2022-12-07T08:20:03.405Z,2.30
2022-12-07T08:22:52.022Z,2.30
2022-12-07T08:25:37.666Z,2.30
2022-12-07T08:28:23.202Z,2.40
2022-12-07T08:31:16.858Z,2.40
2022-12-07T08:34:02.667Z,2.40
2022-12-07T08:36:48.138Z,2.50
2022-12-07T08:39:33.658Z,2.60
2022-12-07T08:42:18.925Z,2.70
2022-12-07T08:45:10.054Z,2.80
2022-12-07T08:48:02.211Z,2.80
2022-12-07T08:50:49.754Z,2.90
2022-12-07T08:53:38.053Z,2.90
2022-12-07T08:56:23.810Z,3.00
2022-12-07T08:59:10.160Z,3.10
2022-12-07T09:01:55.935Z,3.30
2022-12-07T09:04:41.823Z,3.40
2022-12-07T09:07:28.725Z,3.50
2022-12-07T09:10:14.431Z,3.40
2022-12-07T09:13:02.584Z,3.60
2022-12-07T09:15:48.460Z,3.60
2022-12-07T09:18:33.815Z,3.60
2022-12-07T09:21:19.663Z,3.60
2022-12-07T09:24:05.449Z,3.70
2022-12-07T09:26:50.916Z,3.70
2022-12-07T09:29:37.866Z,3.90
2022-12-07T09:32:24.067Z,3.90
2022-12-07T09:35:10.874Z,3.80
2022-12-07T09:37:56.486Z,3.90
2022-12-07T09:40:44.697Z,4.10
2022-12-07T09:43:30.323Z,4.10
2022-12-07T09:46:19.069Z,4.20
2022-12-07T09:49:05.572Z,4.30
2022-12-07T09:52:14.016Z,4.40
2022-12-07T09:54:59.554Z,4.60
2022-12-07T09:57:45.439Z,4.70
2022-12-07T10:00:31.310Z,4.70
2022-12-07T10:03:17.108Z,4.90
2022-12-07T10:06:02.786Z,4.90
2022-12-07T10:08:49.018Z,5.00
2022-12-07T10:11:34.650Z,5.00
2022-12-07T10:14:21.726Z,5.10
2022-12-07T10:17:30.350Z,5.20
2022-12-07T10:20:21.335Z,5.30
2022-12-07T10:23:16.366Z,5.30
2022-12-07T10:26:22.696Z,5.30
2022-12-07T10:29:30.151Z,5.40
2022-12-07T10:32:15.830Z,5.50
2022-12-07T10:35:23.157Z,5.50
2022-12-07T10:38:18.223Z,5.40
2022-12-07T10:41:08.549Z,5.40
2022-12-07T10:43:57.389Z,5.50
2022-12-07T10:47:08.070Z,5.60
2022-12-07T10:50:18.538Z,5.60
2022-12-07T10:53:10.109Z,5.60
2022-12-07T10:56:22.096Z,5.60
2022-12-07T10:59:16.165Z,5.70
2022-12-07T11:02:22.613Z,5.70
2022-12-07T11:05:39.250Z,5.70
2022-12-07T11:08:50.500Z,5.60
2022-12-07T11:11:55.738Z,5.60
2022-12-07T11:14:55.455Z,5.70
2022-12-07T11:17:51.473Z,5.70
2022-12-07T11:20:54.573Z,5.70
2022-12-07T11:23:45.936Z,5.80
2022-12-07T11:27:04.213Z,5.90
2022-12-07T11:30:11.358Z,5.90
2022-12-07T11:33:35.617Z,5.90
2022-12-07T11:36:44.412Z,6.00
2022-12-07T11:39:53.962Z,6.10
2022-12-07T11:42:46.549Z,6.20
2022-12-07T11:45:35.164Z,6.20
2022-12-07T11:48:35.650Z,6.20
2022-12-07T11:51:23.768Z,6.20
2022-12-07T11:54:24.897Z,6.20
2022-12-07T11:57:20.481Z,6.20
2022-12-07T12:00:14.684Z,6.30
2022-12-07T12:03:09.347Z,6.30
2022-12-07T12:05:55.531Z,6.20
2022-12-07T12:16:08.024Z,6.40
2022-12-07T12:19:06.638Z,6.40
2022-12-07T12:22:01.881Z,6.20
2022-12-07T12:24:52.311Z,6.20
2022-12-07T12:27:40.169Z,5.90
2022-12-07T12:30:33.747Z,6.00
2022-12-07T12:33:31.255Z,6.00
2022-12-07T12:36:17.122Z,6.10
2022-12-07T12:39:15.307Z,6.20
2022-12-07T12:42:01.579Z,6.20
2022-12-07T12:45:17.914Z,6.20
2022-12-07T12:48:37.821Z,6.40
2022-12-07T12:51:40.582Z,6.50
2022-12-07T12:54:29.073Z,6.50
2022-12-07T12:57:25.387Z,6.50
2022-12-07T13:00:23.034Z,6.60
2022-12-07T13:03:30.029Z,6.50
2022-12-07T13:06:36.531Z,6.50
2022-12-07T13:09:24.079Z,6.50
2022-12-07T13:12:17.392Z,6.60
2022-12-07T13:15:04.558Z,6.50
2022-12-07T13:17:57.614Z,6.40
2022-12-07T13:20:53.905Z,6.50
2022-12-07T13:23:45.654Z,6.40
2022-12-07T13:26:31.316Z,6.50
2022-12-07T13:29:17.872Z,6.60
2022-12-07T13:32:03.347Z,6.60
2022-12-07T13:34:48.830Z,6.60
2022-12-07T13:37:38.359Z,6.50
2022-12-07T13:40:25.302Z,6.50
2022-12-07T13:43:16.524Z,6.50
2022-12-07T13:46:18.337Z,6.50
2022-12-07T13:49:15.680Z,6.50
2022-12-07T13:52:18.980Z,6.50
2022-12-07T13:55:07.452Z,6.50
2022-12-07T13:57:55.389Z,6.50
2022-12-07T14:00:41.892Z,6.50
2022-12-07T14:03:34.182Z,6.50
2022-12-07T14:06:28.975Z,6.50
2022-12-07T14:09:22.309Z,6.40
2022-12-07T14:12:08.199Z,6.50
2022-12-07T14:14:54.322Z,6.50
2022-12-07T14:17:54.906Z,6.50
2022-12-07T14:20:41.951Z,6.40
2022-12-07T14:23:28.649Z,6.40
2022-12-07T14:26:21.593Z,6.30
2022-12-07T14:29:22.623Z,6.20
2022-12-07T14:32:30.143Z,6.20
2022-12-07T14:35:18.033Z,6.20
2022-12-07T14:38:04.037Z,6.20
2022-12-07T14:40:50.026Z,6.10
2022-12-07T14:43:39.396Z,6.10
2022-12-07T14:46:31.068Z,6.10
2022-12-07T14:55:36.685Z,6.00
2022-12-07T14:58:22.398Z,6.00
2022-12-07T15:01:08.289Z,6.00
2022-12-07T15:03:53.969Z,5.90
2022-12-07T15:06:39.961Z,5.90
2022-12-07T15:09:25.322Z,5.80
2022-12-07T15:12:11.303Z,5.80
2022-12-07T15:14:56.945Z,5.80
2022-12-07T15:17:42.481Z,5.70
2022-12-07T15:20:27.775Z,5.60
2022-12-07T15:23:13.841Z,5.60
2022-12-07T15:25:59.071Z,5.60
2022-12-07T15:28:44.498Z,5.60
2022-12-07T15:31:54.525Z,5.50
2022-12-07T15:34:40.034Z,5.50
2022-12-07T15:37:25.959Z,5.40
2022-12-07T15:40:12.947Z,5.40
2022-12-07T15:42:58.925Z,5.40
2022-12-07T15:45:44.259Z,5.50
2022-12-07T15:48:30.261Z,5.40
2022-12-07T15:51:20.205Z,5.30
2022-12-07T15:54:10.221Z,5.20
2022-12-07T15:56:56.514Z,5.20
2022-12-07T15:59:41.895Z,5.20
2022-12-07T16:02:27.401Z,5.20
2022-12-07T16:05:12.785Z,5.10
2022-12-07T16:07:58.631Z,5.10
2022-12-07T16:10:44.334Z,5.00
2022-12-07T16:13:29.890Z,4.90
2022-12-07T16:16:18.183Z,4.80
2022-12-07T16:19:04.038Z,4.80
2022-12-07T16:21:49.474Z,4.80
2022-12-07T16:24:35.111Z,4.80
2022-12-07T16:27:20.858Z,4.70
2022-12-07T16:30:07.308Z,4.70
2022-12-07T16:32:54.970Z,4.70
2022-12-07T16:35:43.363Z,4.60
2022-12-07T16:38:29.073Z,4.60
2022-12-07T16:41:14.514Z,4.60
2022-12-07T16:44:08.366Z,4.50
2022-12-07T16:46:54.206Z,4.50
2022-12-07T16:49:39.864Z,4.50
2022-12-07T16:52:25.691Z,4.60
2022-12-07T16:55:11.094Z,4.40
2022-12-07T16:57:57.183Z,4.40
2022-12-07T17:00:43.487Z,4.40
2022-12-07T17:03:29.436Z,4.40
2022-12-07T17:06:23.558Z,4.40
2022-12-07T17:09:10.805Z,4.30
2022-12-07T17:11:56.763Z,4.20
2022-12-07T17:15:01.040Z,4.10
2022-12-07T17:17:51.844Z,4.10
2022-12-07T17:20:37.685Z,4.10
2022-12-07T17:23:23.252Z,4.10
2022-12-07T17:26:14.301Z,4.10
2022-12-07T17:29:00.977Z,4.10
2022-12-07T17:31:51.591Z,4.10
2022-12-07T17:34:38.163Z,4.20
2022-12-07T17:37:23.654Z,4.20
2022-12-07T17:40:09.398Z,4.10
2022-12-07T17:42:55.781Z,4.10
2022-12-07T17:45:41.850Z,4.20
2022-12-07T17:48:27.777Z,4.10
2022-12-07T17:51:31.444Z,4.10
2022-12-07T17:54:17.935Z,4.10
2022-12-07T17:57:03.531Z,3.90
2022-12-07T17:59:48.997Z,3.90
2022-12-07T18:02:34.704Z,3.80
2022-12-07T18:05:20.266Z,3.80
2022-12-07T18:08:06.487Z,3.80
2022-12-07T18:10:59.374Z,3.80
2022-12-07T18:13:45.662Z,3.70
2022-12-07T18:16:35.773Z,3.70
2022-12-07T18:19:21.445Z,3.70
2022-12-07T18:22:07.164Z,3.60
2022-12-07T18:24:52.427Z,3.60
2022-12-07T18:27:38.332Z,3.60
2022-12-07T18:30:42.162Z,3.60
2022-12-07T18:33:29.372Z,3.60
2022-12-07T18:36:16.329Z,3.40
2022-12-07T18:39:05.318Z,3.40
2022-12-07T18:41:50.750Z,3.40
2022-12-07T18:44:36.387Z,3.50
2022-12-07T18:47:21.870Z,3.40
2022-12-07T18:50:07.792Z,3.40
2022-12-07T18:52:53.473Z,3.40
2022-12-07T18:55:39.415Z,3.40
2022-12-07T18:58:25.169Z,3.40
2022-12-07T19:01:11.027Z,3.30
2022-12-07T19:03:58.072Z,3.20
2022-12-07T19:06:45.987Z,3.20
2022-12-07T19:09:31.526Z,3.10
2022-12-07T19:12:17.042Z,3.10
2022-12-07T19:15:03.733Z,3.10
2022-12-07T19:17:49.501Z,3.10
2022-12-07T19:20:35.169Z,3.10
2022-12-07T19:23:20.601Z,3.10
2022-12-07T19:26:05.944Z,3.10
2022-12-07T19:28:51.511Z,3.10
2022-12-07T19:31:37.352Z,3.10
2022-12-07T19:34:23.330Z,3.10
2022-12-07T19:37:11.476Z,3.20
2022-12-07T19:39:57.120Z,3.30
2022-12-07T19:42:42.498Z,3.30
2022-12-07T19:45:29.618Z,3.20
2022-12-07T19:48:15.037Z,3.20
2022-12-07T19:51:04.943Z,3.10
2022-12-07T19:53:50.726Z,3.00
2022-12-07T19:56:36.589Z,3.00
2022-12-07T19:59:25.214Z,3.00
2022-12-07T20:02:15.937Z,3.00
2022-12-07T20:05:05.913Z,3.10
2022-12-07T20:07:52.509Z,3.10
2022-12-07T20:10:41.151Z,3.10
2022-12-07T20:13:29.310Z,3.10
2022-12-07T20:16:19.840Z,3.20
2022-12-07T20:19:05.662Z,3.00
2022-12-07T20:21:51.623Z,2.90
2022-12-07T20:24:37.785Z,2.90
2022-12-07T20:27:23.952Z,2.90
2022-12-07T20:30:10.065Z,2.90
2022-12-07T20:32:55.619Z,2.90
2022-12-07T20:35:41.908Z,2.90
2022-12-07T20:38:28.525Z,2.80
2022-12-07T20:41:33.556Z,2.80
2022-12-07T20:44:19.315Z,2.80
2022-12-07T20:47:06.430Z,2.70
2022-12-07T20:49:52.379Z,2.80
2022-12-07T20:52:38.137Z,2.70
2022-12-07T20:55:23.411Z,2.70
2022-12-07T20:58:08.842Z,2.70
2022-12-07T21:02:57.601Z,2.70
2022-12-07T21:05:49.070Z,2.60
2022-12-07T21:08:36.620Z,2.70
2022-12-07T21:11:23.637Z,2.70
2022-12-07T21:14:09.373Z,2.60
2022-12-07T21:16:54.698Z,2.60
2022-12-07T21:19:40.515Z,2.50
2022-12-07T21:22:26.171Z,2.50
2022-12-07T21:25:11.559Z,2.50
2022-12-07T21:27:59.466Z,2.50
2022-12-07T21:31:11.451Z,2.60
2022-12-07T21:33:50.982Z,2.50
2022-12-07T21:36:37.048Z,2.50
2022-12-07T21:39:22.349Z,2.50
2022-12-07T21:42:08.041Z,2.40
2022-12-07T21:44:53.446Z,2.30
2022-12-07T21:47:39.154Z,2.40
2022-12-07T21:50:24.741Z,2.30
2022-12-07T21:53:10.057Z,2.20
2022-12-07T21:55:56.054Z,2.20
2022-12-07T21:58:42.054Z,2.20
2022-12-07T22:01:30.445Z,2.30
2022-12-07T22:04:19.544Z,2.20
2022-12-07T22:07:05.344Z,2.30
2022-12-07T22:09:50.618Z,2.30
2022-12-07T22:12:36.732Z,2.30
2022-12-07T22:15:22.302Z,2.30
2022-12-07T22:18:08.041Z,2.30
2022-12-07T22:20:57.539Z,2.30
2022-12-07T22:23:43.431Z,2.30
2022-12-07T22:26:28.839Z,2.30
2022-12-07T22:29:14.600Z,2.30
2022-12-07T22:32:01.398Z,2.30
2022-12-07T22:34:55.008Z,2.40
2022-12-07T22:37:40.328Z,2.40
2022-12-07T22:40:25.959Z,2.40
2022-12-07T22:43:11.373Z,2.40
2022-12-07T22:45:58.466Z,2.50
2022-12-07T22:48:44.303Z,2.40
2022-12-07T22:51:30.591Z,2.40
2022-12-07T22:54:17.281Z,2.40
2022-12-07T22:57:03.932Z,2.30
2022-12-07T22:59:49.537Z,2.40
2022-12-07T23:02:35.121Z,2.50
2022-12-07T23:05:20.360Z,2.50
2022-12-07T23:08:06.292Z,2.60
2022-12-07T23:10:52.826Z,2.50
2022-12-07T23:13:38.390Z,2.30
2022-12-07T23:16:23.845Z,2.30
2022-12-07T23:19:09.674Z,2.30
2022-12-07T23:21:55.416Z,2.30
2022-12-07T23:24:40.747Z,2.30
2022-12-07T23:27:26.364Z,2.30
2022-12-07T23:30:12.080Z,2.30
2022-12-07T23:32:57.334Z,2.30
2022-12-07T23:35:43.374Z,2.30
2022-12-07T23:38:28.910Z,2.30
2022-12-07T23:41:16.162Z,2.20
2022-12-07T23:44:02.055Z,2.20
2022-12-07T23:46:48.488Z,2.20
2022-12-07T23:49:33.846Z,2.20
2022-12-07T23:52:19.285Z,2.20
2022-12-07T23:55:05.148Z,2.20
2022-12-07T23:57:50.714Z,2.10
